Don Miguel Hidalgo Y Costilla International Airport
MMGL : now visible

Airfield :











YOU CAN JOIN US ON...

 
LOGIN :

Register | Disclaimer

   EN    FR    IT 

 









Legend :    VFR   Marginal VFR   IFR   Intensive IFR   Very Intensive IFR
Visi :
Ceiling :
>= 8 km
>= 3000ft
5 to 8 km
1000 to 3000 ft
1500m to 5 km
500 to 1000 ft
800 to 1500m
200 to 500 ft
< 800m
< 200 ft
Symbols :   Thunderstorms  Fog  Heavy snow  Heavy precipitations  Wind > 20 kt







- Airport Elevation : 5016 ft
- IATA code : GDL


MMGL - Don Miguel Hidalgo Y Costilla International

CURRENT METAR :
  • 190947Z 00000KT 10SM SCT025 19/17 A3013 RMK 8/500 AC

EXPIRED METARs :
  • 190923Z RTD 26003KT 10SM SCT025 19/17 A3014 RMK SLP081 52014 968 8/500
  • 190749Z 00000KT 10SM SCT025 19/07 A3014 RMK 8/500

TAF TAF MMGL
Valid from the 19 at 06:00 until the 20 at 12:00 UTC


190512Z 1906/2012 30005KT P6SM SCT100 SCT250 TX30/1922Z TN18/1912Z
FM191800 30010KT P6SM SCT020
FM192200 30012KT P6SM SCT020CB BKN080
PROB40 1922/2002 2SM TSRA BKN020CB
FM200200 30005KT P6SM SCT080 BKN250
No reported NOTAMs for that airfield.



MET'MAP, your aeronautical weather chart ! - Copyright ORBIFLY December 2007 - Disclaimer

ORBIFLY MET'MAP TEAM :

Programming & Development : Alexandra Zaïnal
Concept & Development : Baudouin d'Aumeries
Co-Development & Prog : Marc-Olivier Méhu
Technical & hardware support : Manuel Goepfert

Contact : metmap@orbifly.com




SOURCES & CREDITS :

   NOAA       Earth
Advisory